Boynton Beach, FL (33437)

5:51 PM EDT on August 27, 2015 (GMT -0400)
Pipers Glen Estates | | Change Station
CLOSE
Current Station
Personal Weather Station
Location: Boynton Beach, FL
Elevation: 27 ft
Nearby Weather Stations

Elev 27 ft 26.49 °N, 80.14 °W | Updated 6 seconds ago

Overcast
Overcast
79.2 °F
Feels Like 82 °F
N
2.7
Wind Variable Wind from NNW
Gusts 2.7 mph

Today
High -- | Low -- °F
--% Chance of Precip.
Yesterday
High -- | Low -- °F
Precip. -- in
6:58 AM 7:45 PM
Waxing Gibbous, 95% visible
Pressure 29.97 in
Visibility 8.0 miles
Clouds Few 2600 ft
Scattered Clouds 4800 ft
Mostly Cloudy 8000 ft
Heat Index 82 °F
Dew Point 69 °F
Humidity 72%
Rainfall 0.00 in
Snow Depth Not available.
UV 2 out of 12
Pollen .60 out of 12
Air Quality Not available.
Flu Activity Not available.
SPECI KPBI 272117Z 35003KT 8SM -RA FEW026 SCT048CB BKN080 23/21 A2997 RMK AO2 TSE16 OCNL LTGIC DSNT NE CB NW-NE MOV E CB DSNT NE P0003 T02280211
Pressure 29.97 in
Visibility 8.0 miles
Clouds Few 2600 ft
Scattered Clouds 4800 ft
Mostly Cloudy 8000 ft
Heat Index 82 °F
Dew Point 69 °F
Humidity 72%
Rainfall 0.00 in
Snow Depth Not available.
UV 2 out of 12
Pollen .60 out of 12
Air Quality Not available.
Flu Activity Not available.
SPECI KPBI 272117Z 35003KT 8SM -RA FEW026 SCT048CB BKN080 23/21 A2997 RMK AO2 TSE16 OCNL LTGIC DSNT NE CB NW-NE MOV E CB DSNT NE P0003 T02280211
Tropical Storm Erika remains unorganized as it travels through the northeast Caribbean Sea. The storm has already dumped 5-10 inches of rain on the Lesser Antilles, with more rain anticipated for Puerto Rico and Hispaniola. This will be much-needed rain for those islands. Erika is not forecast to reach hurricane strength until Monday when it curves northward along the east coast of Florida. Follow the live blog

10-Day Weather Forecast

×

Almanac

Astronomy

Aug. 27, 2015 Rise Set
Actual Time
Civil Twilight
Nautical Twilight
Astronomical Twilight
Moon
Length of Visible Light
Length of Day
Tomorrow will be .
, % of the Moon is Illuminated

Today's Extremes

State Highs State Lows

Community

WunderPhotos

Upload Photos

1,850,238 photos uploaded!

WunderBlogs® & News

Nearby

Air Quality

  Air Quality AQ Index Pollutant
Not available.

Snow Depth

Station Depth Elevation

Earthquake Activity

City Distance Mag. Time & Date
Minimum magnitude displayed is 2.5.

Coastal Water Temperatures

Place Temperature

Stations

Nearby Weather Stations

Station Location Temp. Windchill Dew Point Humidity Wind Precip. Elev Updated Type